Weather observations for the past three days for
Lexington, Davidson County Airport
Metric (Imperial)
Date Time (edt) Wind (kph) Vis. (km) Weather Sky Cond. Temperature (ºC) Relative Humidity Wind Chill (°C) Heat Index (°C) Pressure Precipitation (cm)
Air Dwpt 6 hour altimeter (cm) sea level (mb) 1 hr 3 hr 6 hr
Max. Min.
03 21:55 Calm 16.09 Fair CLR 10.4 2.5 58% 76.25 0.0
03 21:35 Calm 16.09 Fair CLR 10.8 2.4 56% 76.25 0.0
03 21:15 Calm 16.09 Fair CLR 11.9 2.1 51% 76.25 0.0
03 20:55 Calm 16.09 Fair CLR 12.6 1.4 47% 76.2 0.0
03 20:35 Calm 16.09 Fair CLR 13.2 1.4 45% 76.2 0.0
03 20:15 Calm 16.09 Fair CLR 14.3 0.7 40% 76.2 0.0
03 19:55 Calm 16.09 Fair CLR 15 0.3 20 15 37% 76.2 0.0
03 19:35 S 6 16.09 Fair CLR 15.6 0.3 36% 76.2 0.0
03 19:15 Calm 16.09 Fair CLR 17.3 -0.1 31% 76.17 0.0
03 18:55 SW 6 16.09 Fair CLR 18.7 -0.3 28% 76.2 0.0
03 18:35 SW 6 16.09 Fair CLR 18.9 -0.9 26% 76.2 0.0
03 18:15 W 11 16.09 Fair CLR 19.2 -0.9 26% 76.2 0.0
03 17:55 SW 9 16.09 Fair CLR 19.2 -0.7 26% 76.25 0.0
03 17:35 SW 11 16.09 Fair CLR 19.7 -0.7 25% 76.25 0.0
03 17:15 SW 13 16.09 Fair CLR 19.9 -0.2 26% 76.25 0.0
03 16:55 NW 11 16.09 Fair CLR 19.5 -1.2 25% 76.28 0.0
03 16:35 SW 13 16.09 Fair CLR 19.3 -1.1 25% 76.28 0.0
03 16:15 SW 7 16.09 Fair CLR 19.4 -1.2 25% 76.3 0.0
03 15:55 W 13 16.09 Fair CLR 19.1 -1.1 26% 76.33 0.0
03 15:35 W 6 16.09 Fair CLR 19.1 -1 26% 76.35 0.0
03 15:15 S 7 16.09 Fair CLR 17.6 -3.3 24% 76.38 0.0
03 14:55 SW 17 G 26 16.09 Fair CLR 17.8 -1.4 27% 76.38 0.0
03 14:35 W 11 16.09 Fair CLR 17.5 -2.1 26% 76.4 0.0
03 14:15 W 11 16.09 Fair CLR 17.9 -1.8 26% 76.43 0.0
03 13:55 Calm 16.09 Fair CLR 17.2 -1.6 17.4 5.6 28% 76.43 0.0
03 13:35 Calm 16.09 Fair CLR 16.8 -1.6 29% 76.45 0.0
03 13:15 Calm 16.09 Fair CLR 16.1 -2 29% 76.48 0.0
03 12:55 Calm 16.09 Fair CLR 15.9 -2 29% 76.5 0.0
03 12:35 W 7 16.09 Fair CLR 15.1 -2.3 30% 76.53 0.0
03 12:15 NW 13 16.09 Fair CLR 14.8 -2.9 30% 76.53 0.0
03 11:55 W 9 16.09 Fair CLR 14.7 -1 34% 76.53 0.0
03 11:35 NW 7 16.09 Fair CLR 14.3 -0.9 35% 76.56 0.0
03 11:15 NW 7 16.09 Fair CLR 13.8 -0.7 37% 76.56 0.0
03 10:55 NW 13 16.09 Fair CLR 13 -0.9 39% 76.56 0.0
03 10:35 W 13 16.09 Fair CLR 13.2 -0.2 40% 76.56 0.0
03 10:15 W 7 G 26 16.09 Fair CLR 12.4 -0.5 41% 76.56 0.0
03 09:55 NW 11 16.09 Fair CLR 12 0 44% 76.53 0.0
03 09:35 NW 6 16.09 Fair CLR 11.3 1.1 50% 76.53 0.0
03 09:15 N 11 16.09 Fair CLR 10.9 1.7 53% 76.53 0.0
03 08:55 NW 9 16.09 Fair CLR 10.1 2.3 59% 76.53 0.0
03 08:35 W 6 16.09 Fair CLR 9.1 2.5 64% 76.53 0.0
03 08:15 Calm 16.09 Fair CLR 7.4 3.9 79% 76.53 0.0
03 07:55 Calm 16.09 Fair CLR 5.4 4.3 5.4 1 93% 76.5 0.0
03 07:35 Calm 16.09 Fair CLR 3.7 3.5 99% 76.5 0.0
03 07:15 Calm 16.09 Fair CLR 2.2 2.2 100% 76.48 0.0
03 06:35 Calm 16.09 Fair CLR 1.3 1.3 100% 76.45 0.0
03 06:15 Calm 16.09 Fair CLR 2 2 100% 76.4 0.0
03 05:55 Calm 16.09 Fair CLR 2 2 100% 76.38 0.0
03 05:35 Calm 16.09 Fair CLR 2 2 100% 76.35 0.0
03 05:15 Calm 16.09 Fair CLR 1.9 1.9 100% 76.35 0.0
03 04:55 Calm 16.09 Fair CLR 2 2 100% 76.35 0.0
03 04:35 Calm 16.09 Fair CLR 1.8 1.8 100% 76.35 0.0
03 04:15 Calm 16.09 Fair CLR 2.4 2.3 99% 76.33 0.0
03 03:55 Calm 16.09 Fair CLR 3.3 3 98% 76.33 0.0
03 03:35 Calm 16.09 Fair CLR 3 3 100% 76.3 0.0
03 03:15 Calm 16.09 Fair CLR 2.8 2.8 100% 76.28 0.0
03 02:55 Calm 16.09 Fair CLR 3.2 3 99% 76.25 0.0
03 02:35 Calm 16.09 Fair CLR 3.5 3.1 97% 76.25 0.0
03 02:15 Calm 16.09 Fair CLR 3.7 3 95% 76.25 0.0
03 01:55 Calm 16.09 Fair CLR 3.8 2.9 12.8 3.8 94% 76.25 0.0
03 01:35 Calm 16.09 Fair CLR 4 3.5 97% 76.25 0.0
03 01:15 Calm 16.09 Fair CLR 4.4 3.4 93% 76.25 0.0
03 00:55 Calm 16.09 Fair CLR 4.6 3.8 95% 76.23 0.0
03 00:35 Calm 16.09 Fair CLR 5.2 4.7 97% 76.2 0.0
03 00:15 Calm 16.09 Fair CLR 5 4.9 99% 76.2 0.0
02 23:55 Calm 16.09 Fair CLR 5.5 3.9 90% 76.17 0.0
02 23:35 Calm 16.09 Partly Cloudy SCT110 6.3 3.6 83% 76.17 0.0
02 23:15 Calm 16.09 Fair CLR 6.9 3.5 79% 76.17 0.0
02 22:55 Calm 16.09 Fair CLR 6.7 3.9 83% 76.17 0.0
02 22:35 Calm 16.09 Fair CLR 7.7 3.8 77% 76.15 0.0
02 22:15 Calm 16.09 Partly Cloudy SCT100 8.3 4 75% 76.15 0.0
02 21:50 NW 6 16.09 Mostly Cloudy BKN090 9.2 3.7 69% 76.12 0.0
02 21:35 Calm 16.09 Overcast OVC090 9.4 4.2 70% 76.1 0.0
02 21:15 NW 6 16.09 Overcast OVC090 8.8 4.1 73% 76.07 0.0
02 20:55 Calm 16.09 Mostly Cloudy BKN100 10 3.9 66% 76.05 0.0
02 20:35 Calm 16.09 Mostly Cloudy BKN100 10.7 4.1 64% 76.02 0.0
02 20:15 Calm 16.09 Overcast OVC090 12.2 3.7 56% 76 0.0
02 19:55 Calm 16.09 Overcast OVC080 12.7 3.2 16.6 12.7 53% 76 0.0
02 19:35 Calm 16.09 Overcast BKN080 OVC095 13.2 3 50% 75.97 0.0
02 19:15 Calm 16.09 Overcast BKN080 OVC090 14.1 2 44% 75.95 0.0
02 18:55 Calm 16.09 Mostly Cloudy BKN090 13.5 4.3 54% 75.92 0.0
02 18:35 Calm 16.09 Fair CLR 16 0.1 34% 75.92 0.0
02 18:15 E 6 16.09 Fair CLR 16.4 0.2 33% 75.9 0.0
02 17:55 SE 6 16.09 Fair CLR 16.5 0.1 33% 75.9 0.0
02 17:35 Calm 16.09 Fair CLR 15.9 -0.7 32% 75.9 0.0
02 17:15 Calm 16.09 Fair CLR 16 0.2 34% 75.87 0.0
02 16:55 Calm 16.09 Partly Cloudy SCT085 15.6 0.2 35% 75.9 0.0
02 16:35 E 6 16.09 Overcast BKN065 OVC080 15.1 -0.3 35% 75.9 0.0
02 16:15 NE 6 16.09 Overcast BKN065 OVC080 15.2 -0.2 35% 75.9 0.0
02 15:55 Calm 16.09 Mostly Cloudy SCT065 BKN080 14.9 -0.6 35% 75.92 0.0
02 15:35 NE 7 16.09 Mostly Cloudy SCT065 SCT080 BKN120 14.6 -0.2 37% 75.97 0.0
02 15:15 E 9 16.09 Overcast SCT060 OVC070 14.4 -0.7 36% 75.97 0.0
02 14:35 N 6 16.09 Overcast BKN060 OVC085 13.3 -0.8 38% 76 0.0
02 14:15 NE 6 16.09 Overcast OVC060 13.2 0 41% 76 0.0
02 13:55 NE 6 16.09 Overcast BKN060 BKN070 OVC120 13.2 0 13.5 11.6 41% 76 0.0
02 13:35 NE 6 16.09 Overcast BKN060 BKN070 OVC120 13 0 41% 76.02 0.0
02 13:15 N 7 16.09 Overcast BKN060 OVC070 12.9 -0.4 40% 76.02 0.0
02 12:55 N 9 16.09 Overcast OVC060 13 -0.6 39% 76.05 0.0
02 12:35 N 6 16.09 Overcast OVC060 13.3 0 40% 76.07 0.0
02 12:15 N 6 16.09 Overcast OVC060 13.1 0.6 43% 76.07 0.0
02 11:55 N 9 16.09 Overcast OVC050 12.5 1.1 46% 76.1 0.0
02 11:35 N 6 16.09 Overcast OVC050 11.9 1.9 51% 76.15 0.0
02 11:15 Calm 16.09 Overcast OVC050 11.9 1.1 48% 76.12 0.0
02 10:55 NE 6 16.09 Overcast OVC050 12.1 0.8 46% 76.1 0.0
02 10:35 NE 9 16.09 Overcast BKN050 OVC065 12.2 3.3 55% 76.07 0.0
02 10:15 NE 11 16.09 Overcast SCT055 OVC065 12.5 4.4 58% 76.07 0.0
02 09:55 NE 6 16.09 Overcast BKN055 OVC065 12.3 5.3 63% 76.07 0.0
02 09:35 NE 7 16.09 Overcast OVC049 12 5.6 65% 76.05 0.0
02 09:15 N 6 16.09 Overcast OVC049 11.6 5.8 68% 76.05 0.0
02 08:55 Calm 16.09 Overcast OVC049 11.8 5.7 66% 76.07 0.0
02 08:35 NE 7 16.09 Overcast SCT047 BKN055 OVC065 12 5.8 66% 76.02 0.0
02 08:15 N 6 16.09 Overcast SCT049 OVC065 11.8 6 68% 76 0.0
02 07:55 NE 7 16.09 Overcast SCT048 OVC065 11.7 6.4 11.7 10.6 70% 76.02 0.0
02 07:30 N 6 16.09 Overcast OVC065 11.5 6.8 73% 76 0.0
02 07:15 NE 6 16.09 Overcast OVC065 11.3 7.7 79% 75.97 0.0
02 06:55 NE 6 16.09 Mostly Cloudy BKN065 11.2 8.6 84% 75.97 0.0
02 06:35 Calm 16.09 Partly Cloudy SCT065 SCT110 11 9.9 93% 75.95 0.0
02 06:15 Calm 16.09 Mostly Cloudy SCT065 BKN110 11 10.5 97% 75.97 0.0
02 05:55 Calm 16.09 Light Rain SCT065 OVC110 11.1 10.2 94% 76 0.0
02 05:35 Calm 16.09 Overcast BKN075 OVC095 11.1 10.1 94% 76.02 0.0
02 05:15 Calm 16.09 Overcast OVC075 10.7 10.6 99% 76.05 0.0
02 04:55 Calm 16.09 Overcast SCT060 SCT075 OVC080 10.9 10.6 98% 76.02 0.0
02 04:35 Calm 16.09 Overcast SCT070 SCT090 OVC110 11.2 10.3 94% 76 0.0
02 04:15 Calm 16.09 Mostly Cloudy BKN120 11 10.6 97% 75.97 0.0
02 03:55 Calm 16.09 Partly Cloudy SCT034 SCT120 10.8 10.8 100% 75.95 0.0
02 03:30 Calm 16.09 Overcast OVC032 11.5 10.4 93% 75.95 0.0
02 03:15 Calm 16.09 Mostly Cloudy SCT027 BKN032 11.3 10 92% 75.95 0.0
02 02:55 Calm 16.09 Fair CLR 11.2 10.1 93% 75.95 0.0
02 02:35 NW 6 16.09 Fair CLR 11.1 10.6 97% 75.95 0.0
02 02:15 Calm 16.09 Fair CLR 10.6 10.6 100% 75.95 0.0
02 01:55 Calm 16.09 Fair CLR 10.7 10.5 14.7 10.5 99% 75.95 0.0
02 01:35 Calm 16.09 Fair CLR 11 10 94% 75.95 0.0
02 01:15 Calm 16.09 Fair CLR 10.5 10.2 98% 75.95 0.0
02 00:55 Calm 16.09 Fair CLR 10.5 10.1 97% 75.97 0.0
02 00:35 Calm 16.09 Fair CLR 10.5 9.7 95% 76 0.0
02 00:15 Calm 16.09 Fair CLR 10.8 9.1 89% 75.97 0.0
01 23:55 Calm 16.09 Fair CLR 11.1 8.6 85% 75.97 0.0
01 23:35 Calm 16.09 Fair CLR 11.4 8.5 83% 76 0.0
01 23:15 Calm 16.09 Fair CLR 11.1 8.5 84% 76 0.0
01 22:55 Calm 16.09 Fair CLR 11.6 8.3 80% 76 0.0
01 22:35 Calm 16.09 Fair CLR 11.5 8.2 80% 76.02 0.0
01 22:15 Calm 16.09 Fair CLR 12 8 77% 76.02 0.0
01 21:55 Calm 16.09 Fair CLR 12.2 8 76% 76 0.0
01 21:35 S 6 16.09 Fair CLR 12.3 8 75% 76.02 0.0
01 21:15 S 6 16.09 Fair CLR 12.7 7.7 72% 76.02 0.0
01 20:55 S 6 16.09 Fair CLR 13.2 7.7 70% 76 0.0
01 20:35 SE 9 16.09 Fair CLR 13.7 8.2 70% 75.95 0.0
01 20:15 S 9 16.09 Fair CLR 14.3 8.9 70% 75.95 0.0
01 19:55 SE 7 16.09 Fair CLR 14.8 8.6 20.6 14.8 67% 75.9 0.0
01 19:35 S 11 16.09 Fair CLR 15.5 8.5 63% 75.9 0.0
01 19:15 S 11 16.09 Fair CLR 15.8 8.4 62% 75.92 0.0
01 18:55 S 11 16.09 Fair CLR 16.2 8.4 60% 75.92 0.0
01 18:35 SE 9 16.09 Fair CLR 16.4 8.2 59% 75.92 0.0
01 18:15 S 7 16.09 Fair CLR 17.3 7.6 53% 75.92 0.0
01 17:55 SE 9 16.09 Fair CLR 17.2 7.5 53% 75.92 0.0
01 17:35 S 6 16.09 Fair CLR 18.2 6.9 48% 75.95 0.0
01 17:15 SE 9 16.09 Fair CLR 18.7 7 47% 75.95 0.0
01 16:55 S 9 16.09 Fair CLR 18.9 7 46% 75.95 0.0
01 16:35 S 11 16.09 Fair CLR 18.5 7.1 48% 75.95 0.0
01 16:15 S 11 16.09 Fair CLR 18.6 6.8 46% 75.97 0.0
01 15:55 S 13 16.09 Mostly Cloudy BKN050 19.7 7.4 45% 75.97 0.0
01 15:35 S 13 16.09 Mostly Cloudy BKN055 19.6 6.3 42% 76.02 0.0
01 15:15 S 9 16.09 Partly Cloudy SCT065 20 6.2 41% 76.05 0.0
01 14:55 S 15 16.09 Partly Cloudy SCT065 20 5.9 40% 76.05 0.0
01 14:35 SW 7 16.09 Partly Cloudy SCT055 19 5.5 41% 76.07 0.0
01 14:15 SW 9 16.09 Mostly Cloudy BKN055 17.8 5.3 44% 76.07 0.0
01 13:55 SW 11 16.09 Partly Cloudy SCT055 18.6 5.3 18.9 10.1 42% 76.1 0.0
01 13:35 SW 6 16.09 Partly Cloudy SCT055 18.6 5.3 42% 76.1 0.0
01 13:15 Calm 16.09 Partly Cloudy SCT055 SCT065 17 3.6 41% 76.15 0.0
01 12:55 S 11 16.09 Mostly Cloudy SCT055 BKN065 17.8 4.2 41% 76.15 0.0
01 12:35 E 6 16.09 Partly Cloudy SCT055 17.1 3.2 40% 76.17 0.0
01 12:15 Calm 16.09 Partly Cloudy SCT065 15.8 3.7 45% 76.2 0.0
01 11:55 NE 6 16.09 Overcast OVC065 16 3.4 43% 76.2 0.0
01 11:35 E 9 16.09 Overcast OVC065 15.1 3.7 47% 76.25 0.0
01 11:15 E 9 16.09 Overcast OVC065 14.6 3.6 48% 76.25 0.0
01 10:55 E 13 16.09 Overcast OVC065 14.7 3.4 47% 76.25 0.0
01 10:35 E 11 16.09 Overcast OVC065 13.8 3.2 49% 76.25 0.0
01 10:15 E 17 16.09 Overcast OVC065 13.6 3.2 50% 76.25 0.0
01 09:55 E 15 16.09 Overcast OVC065 13 3 51% 76.2 0.0
01 09:35 E 15 16.09 Overcast OVC070 12.4 3.2 54% 76.23 0.0
01 09:15 E 7 16.09 Overcast OVC070 12.5 3.4 54% 76.25 0.0
01 08:55 E 9 16.09 Overcast OVC080 11.3 3.1 57% 76.2 0.0
01 08:35 E 7 16.09 Overcast OVC080 11 3.1 59% 76.23 0.0
01 08:15 Calm 16.09 Overcast BKN085 OVC090 10.6 2.9 59% 76.23 0.0
01 07:55 Calm 16.09 Overcast SCT085 OVC110 10.2 4.4 11.5 9.7 68% 76.23 0.0
01 07:35 Calm 16.09 Mostly Cloudy BKN110 10.2 3.4 63% 76.25 0.0
01 07:15 Calm 16.09 Overcast SCT070 BKN090 OVC110 9.9 3.7 66% 76.2 0.0
01 06:55 Calm 16.09 Overcast SCT070 BKN080 OVC110 10 2.8 61% 76.2 0.0
01 06:35 Calm 16.09 Overcast BKN080 OVC110 10 2.8 61% 76.17 0.0
01 06:15 Calm 16.09 Overcast OVC080 10 2.8 61% 76.15 0.0
01 05:55 Calm 16.09 Overcast OVC080 10.3 2.3 58% 76.15 0.0
01 05:35 Calm 16.09 Mostly Cloudy BKN080 10.3 2.2 58% 76.15 0.0
01 05:15 Calm 16.09 Overcast OVC080 10.5 2.2 57% 76.1 0.0
01 04:55 N 6 16.09 Mostly Cloudy BKN080 10.5 2.3 57% 76.15 0.0
01 04:35 NE 6 16.09 Overcast OVC080 10.6 2.4 57% 76.15 0.0
01 04:15 Calm 16.09 Overcast OVC080 11 2.5 56% 76.15 0.0
01 03:55 Calm 16.09 Overcast OVC080 11 3.1 59% 76.15 0.0
01 03:35 Calm 16.09 Overcast OVC080 10.9 3.4 60% 76.12 0.0
01 03:15 Calm 16.09 Overcast OVC080 10.7 3.4 61% 76.12 0.0
01 02:55 Calm 16.09 Overcast BKN080 OVC100 11 3.1 59% 76.12 0.0
01 02:35 N 6 16.09 Overcast OVC090 10.8 2.9 58% 76.12 0.0
01 02:15 Calm 16.09 Mostly Cloudy BKN080 11.4 2.7 55% 76.12 0.0
01 01:35 Calm 16.09 Partly Cloudy SCT080 SCT095 11.9 2.4 52% 76.12 0.0
01 01:15 Calm 16.09 Mostly Cloudy SCT080 BKN095 12.3 2.4 51% 76.1 0.0
01 00:55 N 7 16.09 Mostly Cloudy SCT080 BKN095 12.5 2.2 50% 76.07 0.0
01 00:35 N 6 16.09 Partly Cloudy SCT075 SCT095 12.2 2.3 51% 76.07 0.0
01 00:15 Calm 16.09 Mostly Cloudy SCT075 BKN095 10.6 4.3 65% 76.05 0.0
30 23:55 Calm 16.09 Mostly Cloudy SCT075 BKN095 12.5 2.5 51% 76.02 0.0
30 23:35 Calm 16.09 Mostly Cloudy SCT075 BKN095 13 2.2 48% 76.02 0.0
30 23:15 Calm 16.09 Mostly Cloudy BKN095 12.9 2.3 49% 76.02 0.0
30 22:55 Calm 16.09 Fair CLR 14 2.1 45% 76.02 0.0
30 22:35 Calm 16.09 Fair CLR 14.2 2.4 45% 76 0.0
Date Time (edt) Wind (kph) Vis. (km) Weather Sky Cond. Air Dwpt Max. Min. Relative Humidity Wind Chill (°C) Heat Index (°C) altimeter (cm) sea level (mb) 1 hr 3 hr 6 hr
6 hour
Temperature (ºC) Pressure Precipitation (cm)